Winkler County Airport
KINK : rendu visible

Aérodrome :











RETROUVEZ-NOUS SUR...

 
LOGIN :

S'inscrire | Disclaimer

   EN    FR    IT 

 









Légende :    VFR   VFR Marginal   IFR   IFR Intensif   IFR Très Intensif
Visi : 
Plafond : 
>= 8 km
>= 3000ft
5 à 8 km
1000 à 3000 ft
1500m à 5 km
500 à 1000 ft
800 à 1500m
200 à 500 ft
< 800m
< 200 ft
Symboles :   Orages  Brouillard  Fortes neiges  Fortes précipitations  Vent > 20 kt






- Altitude de l'aérodrome : 2822 ft


KINK - Winkler County

DERNIER METAR :
  • 271753Z AUTO 29009KT 10SM CLR 13/M13 A3029 RMK AO2 SLP250 T01281128 10128 21056 58006

METARs EXPIRÉS :
  • 271653Z AUTO 26008KT 10SM CLR 09/M13 A3030 RMK AO2 SLP256 T00941128
  • 271553Z AUTO 25011KT 10SM CLR 07/M12 A3030 RMK AO2 SLP259 T00671122

TAF KINK
Valide du 27 à 18h jusqu'au 28 à 18h UTC


271720Z 2718/2818 26010KT P6SM SKC
FM280100 18006KT P6SM FEW250



MET'MAP, la Météo Aéronautique d'un coup d'oeil ! - Copyright ORBIFLY Décembre 2007 - Disclaimer

ORBIFLY MET'MAP TEAM :

Programmation & Développement : Alexandra Zaïnal
Sur une idée originale de : Baudouin d'Aumeries
Assistance à la programmation : Marc-Olivier Méhu
Soutien technique & logistique : Manuel Goepfert

Contact : metmap@orbifly.com




SOURCES & CREDITS :

   NOAA       Earth
Advisory